02:13
Airports
History
Links
Donate
Help keep this website running!
PayPal
Bitcoin
This page is community maintained. The information is intended for PC simulator navigation or reference.
Always use approved charts for navigation.
VAAH
AHMEDABAD
AHMEDABAD (VAAH)
Ahmedabad, Gujarat, India (382475)
(C)
Lat/Lng:23° 4' 37.91" N / 72° 38' 4.68" E
23.077196 / 72.634632
Elevation:189'ft / 58mMSL
ID / ICAO:VAAH
Runways:1
Longest:05-23
Asphalt 3,492m / 11,458ft
Controlled:Yes
METAR02:00 GMT 2017-09-20
Altimeter: 29.65
Visibility: 2.5 statute miles
Wind: 4 knots (from 340°)
Temp: 28°c / 82°f
Humidity: 88.9%

METAR: VAAH 200200Z 34004KT 4000 HZ FEW020 BKN080 28/26 Q1004 TEMPO 3000 BR

(Powered by phpweather)
Airport Radio Frequencies
ATIS: 126.8
Tower: 118.1
Approach: 119.8, 123.75, 118.1, 119.6
Nearby VORs <50NM
Nearby NDBs
Runway 05 / 23
Dimensions:3492.3 x 45.7m 11458' x 150'ft
Surface:Asphalt
Edge Lights:High intensity
Runway 05 [A]Runway 23 [B]
Heading:044°TH 224°TH
Lat:
Lng:
23° 3' 57.61"N
72° 37' 21.55"E
23° 5' 18.2"N
72° 38' 47.8"E
ALS:SALSALSF-I
User Notes and Comments
23° 4' 37.91" N / 72° 38' 4.68" E
Distance To
Airport ID:
Nearby Airports
(C) VADODARA 63.6 NM
VABO SE 143°
(U) DEESA 86.7 NM
VADS NNW 341°
(C) BHAVNAGAR 95.9 NM
VABV ( WX ) SSW 197°
(U) ABU ROAD 98.3 NM
VA74 N
(U) BANSWARA 112.2 NM
VA51 ENE 71°
(U) SIROHI 126.3 NM
VA38 N
(C) RAJKOT 129.6 NM
VARK ( WX ) WSW 245°
VFR Chart
Flight Planning at SkyVector.com